Terminal Aerodrome Forecast
Issued by NWS

Home | Current Version | Previous Version | Text Only | Print | Product List | Glossary On
Versions: 1 2 3 4 5 6 7 8 9 10 11 12 13 14 15 16 17 18 19 20
000
FTUS44 KLZK 020500
TAFBPK
TAF
KBPK 020531Z 0206/0306 07004KT P6SM BKN015
     FM020800 10003KT 4SM BR SCT009 BKN015
      TEMPO 0209/0213 1SM BR BKN008
     FM021500 10006KT P6SM BKN025
     FM021800 12007KT P6SM SCT025 BKN050=

USA.gov is the U.S. government's official web portal to all federal, state and local government web resources and services.